sensor_id;sensor_type;location;lat;lon;timestamp;temperature;humidity
27439;DHT22;14887;51.252;7.470;2023-04-26T00:00:42;1.50;99.90
27439;DHT22;14887;51.252;7.470;2023-04-26T00:03:08;1.50;99.90
27439;DHT22;14887;51.252;7.470;2023-04-26T00:05:34;1.40;99.90
27439;DHT22;14887;51.252;7.470;2023-04-26T00:08:01;1.40;99.90
27439;DHT22;14887;51.252;7.470;2023-04-26T00:10:28;1.40;99.90
27439;DHT22;14887;51.252;7.470;2023-04-26T00:12:54;1.30;99.90
27439;DHT22;14887;51.252;7.470;2023-04-26T00:15:20;1.30;99.90
27439;DHT22;14887;51.252;7.470;2023-04-26T00:17:45;1.20;99.90
27439;DHT22;14887;51.252;7.470;2023-04-26T00:20:11;1.10;99.90
27439;DHT22;14887;51.252;7.470;2023-04-26T00:22:38;1.10;99.90
27439;DHT22;14887;51.252;7.470;2023-04-26T00:25:04;1.10;99.90
27439;DHT22;14887;51.252;7.470;2023-04-26T00:27:30;1.00;99.90
27439;DHT22;14887;51.252;7.470;2023-04-26T00:29:56;0.90;99.90
27439;DHT22;14887;51.252;7.470;2023-04-26T00:32:21;0.90;99.90
27439;DHT22;14887;51.252;7.470;2023-04-26T00:34:47;1.00;99.90
27439;DHT22;14887;51.252;7.470;2023-04-26T00:37:12;1.00;99.90
27439;DHT22;14887;51.252;7.470;2023-04-26T00:39:38;1.00;99.90
27439;DHT22;14887;51.252;7.470;2023-04-26T00:42:04;0.90;99.90
27439;DHT22;14887;51.252;7.470;2023-04-26T00:44:29;0.90;99.90
27439;DHT22;14887;51.252;7.470;2023-04-26T00:46:55;0.90;99.90
27439;DHT22;14887;51.252;7.470;2023-04-26T00:49:23;1.00;99.90
27439;DHT22;14887;51.252;7.470;2023-04-26T00:51:51;0.90;99.90
27439;DHT22;14887;51.252;7.470;2023-04-26T00:54:18;0.90;99.90
27439;DHT22;14887;51.252;7.470;2023-04-26T00:56:44;0.80;99.90
27439;DHT22;14887;51.252;7.470;2023-04-26T00:59:10;0.80;99.90
27439;DHT22;14887;51.252;7.470;2023-04-26T01:01:36;0.80;99.90
27439;DHT22;14887;51.252;7.470;2023-04-26T01:04:02;0.70;99.90
27439;DHT22;14887;51.252;7.470;2023-04-26T01:06:33;0.70;99.90
27439;DHT22;14887;51.252;7.470;2023-04-26T01:09:03;0.60;99.90
27439;DHT22;14887;51.252;7.470;2023-04-26T01:11:37;0.70;99.90
27439;DHT22;14887;51.252;7.470;2023-04-26T01:14:04;0.70;99.90
27439;DHT22;14887;51.252;7.470;2023-04-26T01:16:30;0.60;99.90
27439;DHT22;14887;51.252;7.470;2023-04-26T01:18:55;0.50;99.90
27439;DHT22;14887;51.252;7.470;2023-04-26T01:21:22;0.60;99.90
27439;DHT22;14887;51.252;7.470;2023-04-26T01:23:51;0.60;99.90
27439;DHT22;14887;51.252;7.470;2023-04-26T01:26:17;0.60;99.90
27439;DHT22;14887;51.252;7.470;2023-04-26T01:28:43;0.60;99.90
27439;DHT22;14887;51.252;7.470;2023-04-26T01:31:10;0.60;99.90
27439;DHT22;14887;51.252;7.470;2023-04-26T01:33:36;0.70;99.90
27439;DHT22;14887;51.252;7.470;2023-04-26T01:36:01;0.70;99.90
27439;DHT22;14887;51.252;7.470;2023-04-26T01:38:27;0.80;99.90
27439;DHT22;14887;51.252;7.470;2023-04-26T01:40:52;0.90;99.90
27439;DHT22;14887;51.252;7.470;2023-04-26T01:43:18;0.90;99.90
27439;DHT22;14887;51.252;7.470;2023-04-26T01:45:48;0.90;99.90
27439;DHT22;14887;51.252;7.470;2023-04-26T01:48:13;0.90;99.90
27439;DHT22;14887;51.252;7.470;2023-04-26T01:50:39;0.80;99.90
27439;DHT22;14887;51.252;7.470;2023-04-26T01:53:05;0.70;99.90
27439;DHT22;14887;51.252;7.470;2023-04-26T01:55:30;0.60;99.90
27439;DHT22;14887;51.252;7.470;2023-04-26T01:57:56;0.60;99.90
27439;DHT22;14887;51.252;7.470;2023-04-26T02:00:22;0.60;99.90
27439;DHT22;14887;51.252;7.470;2023-04-26T02:02:47;0.50;99.90
27439;DHT22;14887;51.252;7.470;2023-04-26T02:05:13;0.50;99.90
27439;DHT22;14887;51.252;7.470;2023-04-26T02:07:38;0.50;99.90
27439;DHT22;14887;51.252;7.470;2023-04-26T02:10:04;0.50;99.90
27439;DHT22;14887;51.252;7.470;2023-04-26T02:12:30;0.50;99.90
27439;DHT22;14887;51.252;7.470;2023-04-26T02:14:56;0.50;99.90
27439;DHT22;14887;51.252;7.470;2023-04-26T02:17:22;0.40;99.90
27439;DHT22;14887;51.252;7.470;2023-04-26T02:19:47;0.40;99.90
27439;DHT22;14887;51.252;7.470;2023-04-26T02:22:13;0.40;99.90
27439;DHT22;14887;51.252;7.470;2023-04-26T02:24:39;0.40;99.90
27439;DHT22;14887;51.252;7.470;2023-04-26T02:27:05;0.40;99.90
27439;DHT22;14887;51.252;7.470;2023-04-26T02:29:30;0.30;99.90
27439;DHT22;14887;51.252;7.470;2023-04-26T02:31:57;0.30;99.90
27439;DHT22;14887;51.252;7.470;2023-04-26T02:34:23;0.30;99.90
27439;DHT22;14887;51.252;7.470;2023-04-26T02:36:48;0.30;99.90
27439;DHT22;14887;51.252;7.470;2023-04-26T02:39:14;0.30;99.90
27439;DHT22;14887;51.252;7.470;2023-04-26T02:41:39;0.30;99.90
27439;DHT22;14887;51.252;7.470;2023-04-26T02:44:05;0.30;99.90
27439;DHT22;14887;51.252;7.470;2023-04-26T02:46:31;0.30;99.90
27439;DHT22;14887;51.252;7.470;2023-04-26T02:48:57;0.30;99.90
27439;DHT22;14887;51.252;7.470;2023-04-26T02:51:23;0.20;99.90
27439;DHT22;14887;51.252;7.470;2023-04-26T02:53:48;0.20;99.90
27439;DHT22;14887;51.252;7.470;2023-04-26T02:56:14;0.20;99.90
27439;DHT22;14887;51.252;7.470;2023-04-26T02:58:39;0.20;99.90
27439;DHT22;14887;51.252;7.470;2023-04-26T03:01:05;0.20;99.90
27439;DHT22;14887;51.252;7.470;2023-04-26T03:03:31;0.20;99.90
27439;DHT22;14887;51.252;7.470;2023-04-26T03:05:56;0.20;99.90
27439;DHT22;14887;51.252;7.470;2023-04-26T03:08:22;0.20;99.90
27439;DHT22;14887;51.252;7.470;2023-04-26T03:10:48;0.20;99.90
27439;DHT22;14887;51.252;7.470;2023-04-26T03:13:13;0.10;99.90
27439;DHT22;14887;51.252;7.470;2023-04-26T03:15:43;0.10;99.90
27439;DHT22;14887;51.252;7.470;2023-04-26T03:18:09;0.00;99.90
27439;DHT22;14887;51.252;7.470;2023-04-26T03:20:34;0.00;99.90
27439;DHT22;14887;51.252;7.470;2023-04-26T03:23:00;0.00;99.90
27439;DHT22;14887;51.252;7.470;2023-04-26T03:25:25;0.00;99.90
27439;DHT22;14887;51.252;7.470;2023-04-26T03:27:51;0.00;99.90
27439;DHT22;14887;51.252;7.470;2023-04-26T03:30:17;-0.10;99.90
27439;DHT22;14887;51.252;7.470;2023-04-26T03:32:42;-0.10;99.90
27439;DHT22;14887;51.252;7.470;2023-04-26T03:35:08;-0.10;99.90
27439;DHT22;14887;51.252;7.470;2023-04-26T03:37:35;-0.20;99.90
27439;DHT22;14887;51.252;7.470;2023-04-26T03:40:05;-0.20;99.90
27439;DHT22;14887;51.252;7.470;2023-04-26T03:42:32;-0.20;99.90
27439;DHT22;14887;51.252;7.470;2023-04-26T03:44:58;-0.20;99.90
27439;DHT22;14887;51.252;7.470;2023-04-26T03:47:23;-0.20;99.90
27439;DHT22;14887;51.252;7.470;2023-04-26T03:49:49;-0.10;99.90
27439;DHT22;14887;51.252;7.470;2023-04-26T03:52:14;-0.10;99.90
27439;DHT22;14887;51.252;7.470;2023-04-26T03:54:41;-0.10;99.90
27439;DHT22;14887;51.252;7.470;2023-04-26T03:57:06;-0.10;99.90
27439;DHT22;14887;51.252;7.470;2023-04-26T03:59:32;-0.10;99.90
27439;DHT22;14887;51.252;7.470;2023-04-26T04:01:57;0.10;99.90
27439;DHT22;14887;51.252;7.470;2023-04-26T04:04:23;-0.20;99.90
27439;DHT22;14887;51.252;7.470;2023-04-26T04:06:49;-0.10;99.90
27439;DHT22;14887;51.252;7.470;2023-04-26T04:09:14;-0.10;99.90
27439;DHT22;14887;51.252;7.470;2023-04-26T04:11:40;-0.10;99.90
27439;DHT22;14887;51.252;7.470;2023-04-26T04:14:05;-0.10;99.90
27439;DHT22;14887;51.252;7.470;2023-04-26T04:16:31;-0.10;99.90
27439;DHT22;14887;51.252;7.470;2023-04-26T04:18:57;-0.20;99.90
27439;DHT22;14887;51.252;7.470;2023-04-26T04:21:22;-0.20;99.90
27439;DHT22;14887;51.252;7.470;2023-04-26T04:23:48;-0.20;99.90
27439;DHT22;14887;51.252;7.470;2023-04-26T04:26:14;-0.10;99.90
27439;DHT22;14887;51.252;7.470;2023-04-26T04:28:40;-0.10;99.90
27439;DHT22;14887;51.252;7.470;2023-04-26T04:31:06;-0.10;99.90
27439;DHT22;14887;51.252;7.470;2023-04-26T04:33:35;-0.10;99.90
27439;DHT22;14887;51.252;7.470;2023-04-26T04:36:01;-0.10;99.90
27439;DHT22;14887;51.252;7.470;2023-04-26T04:38:26;-0.10;99.90
27439;DHT22;14887;51.252;7.470;2023-04-26T04:40:53;-0.10;99.90
27439;DHT22;14887;51.252;7.470;2023-04-26T04:43:19;-0.10;99.90
27439;DHT22;14887;51.252;7.470;2023-04-26T04:45:45;-0.10;99.90
27439;DHT22;14887;51.252;7.470;2023-04-26T04:48:13;0.00;99.90
27439;DHT22;14887;51.252;7.470;2023-04-26T04:50:39;0.00;99.90
27439;DHT22;14887;51.252;7.470;2023-04-26T04:53:06;0.00;99.90
27439;DHT22;14887;51.252;7.470;2023-04-26T04:55:33;0.00;99.90
27439;DHT22;14887;51.252;7.470;2023-04-26T04:57:59;0.10;99.90
27439;DHT22;14887;51.252;7.470;2023-04-26T05:00:24;0.10;99.90
27439;DHT22;14887;51.252;7.470;2023-04-26T05:02:50;0.20;99.90
27439;DHT22;14887;51.252;7.470;2023-04-26T05:05:15;0.20;99.90
27439;DHT22;14887;51.252;7.470;2023-04-26T05:07:41;0.30;99.90
27439;DHT22;14887;51.252;7.470;2023-04-26T05:10:07;0.40;99.90
27439;DHT22;14887;51.252;7.470;2023-04-26T05:12:32;0.40;99.90
27439;DHT22;14887;51.252;7.470;2023-04-26T05:14:59;0.50;99.90
27439;DHT22;14887;51.252;7.470;2023-04-26T05:17:25;0.50;99.90
27439;DHT22;14887;51.252;7.470;2023-04-26T05:19:50;0.60;99.90
27439;DHT22;14887;51.252;7.470;2023-04-26T05:22:16;0.70;99.90
27439;DHT22;14887;51.252;7.470;2023-04-26T05:24:47;0.70;99.90
27439;DHT22;14887;51.252;7.470;2023-04-26T05:27:13;1.00;99.90
27439;DHT22;14887;51.252;7.470;2023-04-26T05:29:39;0.90;99.90
27439;DHT22;14887;51.252;7.470;2023-04-26T05:32:05;0.90;99.90
27439;DHT22;14887;51.252;7.470;2023-04-26T05:34:30;1.00;99.90
27439;DHT22;14887;51.252;7.470;2023-04-26T05:36:56;1.00;99.90
27439;DHT22;14887;51.252;7.470;2023-04-26T05:39:22;1.30;99.90
27439;DHT22;14887;51.252;7.470;2023-04-26T05:41:47;1.40;99.90
27439;DHT22;14887;51.252;7.470;2023-04-26T05:44:13;1.60;99.90
27439;DHT22;14887;51.252;7.470;2023-04-26T05:46:39;1.70;99.90
27439;DHT22;14887;51.252;7.470;2023-04-26T05:49:05;2.10;99.90
27439;DHT22;14887;51.252;7.470;2023-04-26T05:51:30;2.60;99.90
27439;DHT22;14887;51.252;7.470;2023-04-26T05:53:56;3.20;99.90
27439;DHT22;14887;51.252;7.470;2023-04-26T05:56:22;3.80;99.90
27439;DHT22;14887;51.252;7.470;2023-04-26T05:58:48;4.50;34.50
27439;DHT22;14887;51.252;7.470;2023-04-26T06:01:14;5.00;1.00
27439;DHT22;14887;51.252;7.470;2023-04-26T06:03:40;5.30;1.00
27439;DHT22;14887;51.252;7.470;2023-04-26T06:06:05;6.00;1.00
27439;DHT22;14887;51.252;7.470;2023-04-26T06:08:32;6.50;99.90
27439;DHT22;14887;51.252;7.470;2023-04-26T06:10:57;7.10;18.60
27439;DHT22;14887;51.252;7.470;2023-04-26T06:13:23;7.70;1.00
27439;DHT22;14887;51.252;7.470;2023-04-26T06:15:48;8.20;99.90
27439;DHT22;14887;51.252;7.470;2023-04-26T06:18:14;8.60;32.70
27439;DHT22;14887;51.252;7.470;2023-04-26T06:20:40;9.00;99.90
27439;DHT22;14887;51.252;7.470;2023-04-26T06:23:05;9.00;16.70
27439;DHT22;14887;51.252;7.470;2023-04-26T06:25:31;9.10;26.40
27439;DHT22;14887;51.252;7.470;2023-04-26T06:27:58;9.50;1.00
27439;DHT22;14887;51.252;7.470;2023-04-26T06:30:23;9.40;1.00
27439;DHT22;14887;51.252;7.470;2023-04-26T06:32:49;10.00;99.90
27439;DHT22;14887;51.252;7.470;2023-04-26T06:35:15;10.20;99.90
27439;DHT22;14887;51.252;7.470;2023-04-26T06:37:40;10.50;99.90
27439;DHT22;14887;51.252;7.470;2023-04-26T06:40:07;10.40;99.90
27439;DHT22;14887;51.252;7.470;2023-04-26T06:42:32;10.50;99.90
27439;DHT22;14887;51.252;7.470;2023-04-26T06:44:58;11.20;70.90
27439;DHT22;14887;51.252;7.470;2023-04-26T06:47:23;11.20;5.60
27439;DHT22;14887;51.252;7.470;2023-04-26T06:49:49;11.50;1.00
27439;DHT22;14887;51.252;7.470;2023-04-26T06:52:16;11.90;1.00
27439;DHT22;14887;51.252;7.470;2023-04-26T06:54:41;11.80;1.00
27439;DHT22;14887;51.252;7.470;2023-04-26T06:57:07;12.00;1.00
27439;DHT22;14887;51.252;7.470;2023-04-26T06:59:32;12.00;1.00
27439;DHT22;14887;51.252;7.470;2023-04-26T07:01:58;12.10;1.00
27439;DHT22;14887;51.252;7.470;2023-04-26T07:04:24;12.20;1.00
27439;DHT22;14887;51.252;7.470;2023-04-26T07:06:50;12.30;1.00
27439;DHT22;14887;51.252;7.470;2023-04-26T07:09:16;12.30;1.00
27439;DHT22;14887;51.252;7.470;2023-04-26T07:11:44;12.50;1.00
27439;DHT22;14887;51.252;7.470;2023-04-26T07:14:10;13.20;1.00
27439;DHT22;14887;51.252;7.470;2023-04-26T07:16:36;13.70;1.00
27439;DHT22;14887;51.252;7.470;2023-04-26T07:19:01;13.90;1.00
27439;DHT22;14887;51.252;7.470;2023-04-26T07:21:27;13.60;1.00
27439;DHT22;14887;51.252;7.470;2023-04-26T07:23:56;13.10;1.00
27439;DHT22;14887;51.252;7.470;2023-04-26T07:26:23;12.30;1.00
27439;DHT22;14887;51.252;7.470;2023-04-26T07:28:50;10.70;1.00
27439;DHT22;14887;51.252;7.470;2023-04-26T07:31:16;9.60;1.00
27439;DHT22;14887;51.252;7.470;2023-04-26T07:33:41;8.90;99.90
27439;DHT22;14887;51.252;7.470;2023-04-26T07:36:07;9.60;99.90
27439;DHT22;14887;51.252;7.470;2023-04-26T07:38:33;9.90;1.00
27439;DHT22;14887;51.252;7.470;2023-04-26T07:40:59;11.00;1.00
27439;DHT22;14887;51.252;7.470;2023-04-26T07:43:26;12.30;1.00
27439;DHT22;14887;51.252;7.470;2023-04-26T07:45:51;12.30;1.00
27439;DHT22;14887;51.252;7.470;2023-04-26T07:48:17;11.40;1.00
27439;DHT22;14887;51.252;7.470;2023-04-26T07:50:42;11.60;1.00
27439;DHT22;14887;51.252;7.470;2023-04-26T07:53:08;11.50;1.00
27439;DHT22;14887;51.252;7.470;2023-04-26T07:55:34;10.60;1.00
27439;DHT22;14887;51.252;7.470;2023-04-26T07:57:59;9.70;1.00
27439;DHT22;14887;51.252;7.470;2023-04-26T08:00:25;8.80;1.00
27439;DHT22;14887;51.252;7.470;2023-04-26T08:02:51;8.30;1.00
27439;DHT22;14887;51.252;7.470;2023-04-26T08:05:16;8.10;1.00
27439;DHT22;14887;51.252;7.470;2023-04-26T08:07:42;8.80;1.00
27439;DHT22;14887;51.252;7.470;2023-04-26T08:10:08;10.10;1.00
27439;DHT22;14887;51.252;7.470;2023-04-26T08:12:35;11.00;1.00
27439;DHT22;14887;51.252;7.470;2023-04-26T08:15:01;11.20;1.00
27439;DHT22;14887;51.252;7.470;2023-04-26T08:17:29;11.60;1.00
27439;DHT22;14887;51.252;7.470;2023-04-26T08:19:55;12.20;1.00
27439;DHT22;14887;51.252;7.470;2023-04-26T08:22:21;12.70;99.90
27439;DHT22;14887;51.252;7.470;2023-04-26T08:24:47;12.60;99.90
27439;DHT22;14887;51.252;7.470;2023-04-26T08:27:14;11.90;99.90
27439;DHT22;14887;51.252;7.470;2023-04-26T08:29:40;10.90;99.90
27439;DHT22;14887;51.252;7.470;2023-04-26T08:32:05;10.30;99.90
27439;DHT22;14887;51.252;7.470;2023-04-26T08:34:31;10.00;1.00
27439;DHT22;14887;51.252;7.470;2023-04-26T08:36:57;9.60;1.00
27439;DHT22;14887;51.252;7.470;2023-04-26T08:39:22;9.30;1.00
27439;DHT22;14887;51.252;7.470;2023-04-26T08:41:56;8.90;1.00
27439;DHT22;14887;51.252;7.470;2023-04-26T08:44:24;9.60;1.00
27439;DHT22;14887;51.252;7.470;2023-04-26T08:46:59;10.80;1.00
27439;DHT22;14887;51.252;7.470;2023-04-26T08:49:41;11.70;1.00
27439;DHT22;14887;51.252;7.470;2023-04-26T08:52:14;11.30;99.90
27439;DHT22;14887;51.252;7.470;2023-04-26T08:54:41;10.90;99.90
27439;DHT22;14887;51.252;7.470;2023-04-26T08:57:07;10.40;99.90
27439;DHT22;14887;51.252;7.470;2023-04-26T08:59:37;9.20;1.00
27439;DHT22;14887;51.252;7.470;2023-04-26T09:02:06;8.50;1.00
27439;DHT22;14887;51.252;7.470;2023-04-26T09:04:34;8.20;1.00
27439;DHT22;14887;51.252;7.470;2023-04-26T09:07:01;7.80;99.90
27439;DHT22;14887;51.252;7.470;2023-04-26T09:09:28;7.60;1.00
27439;DHT22;14887;51.252;7.470;2023-04-26T09:11:58;7.40;99.90
27439;DHT22;14887;51.252;7.470;2023-04-26T09:14:24;7.30;1.00
27439;DHT22;14887;51.252;7.470;2023-04-26T09:16:51;7.40;1.00
27439;DHT22;14887;51.252;7.470;2023-04-26T09:19:17;7.50;1.00
27439;DHT22;14887;51.252;7.470;2023-04-26T09:21:46;7.80;1.00
27439;DHT22;14887;51.252;7.470;2023-04-26T09:24:12;8.30;1.00
27439;DHT22;14887;51.252;7.470;2023-04-26T09:26:38;9.20;1.00
27439;DHT22;14887;51.252;7.470;2023-04-26T09:29:14;10.60;1.00
27439;DHT22;14887;51.252;7.470;2023-04-26T09:31:42;11.20;1.00
27439;DHT22;14887;51.252;7.470;2023-04-26T09:34:09;11.50;1.00
27439;DHT22;14887;51.252;7.470;2023-04-26T09:36:51;11.20;99.90
27439;DHT22;14887;51.252;7.470;2023-04-26T09:39:33;10.60;1.00
27439;DHT22;14887;51.252;7.470;2023-04-26T09:41:59;10.10;99.90
27439;DHT22;14887;51.252;7.470;2023-04-26T09:44:27;9.90;1.00
27439;DHT22;14887;51.252;7.470;2023-04-26T09:47:03;9.40;1.00
27439;DHT22;14887;51.252;7.470;2023-04-26T09:49:49;8.70;1.00
27439;DHT22;14887;51.252;7.470;2023-04-26T09:52:16;8.40;1.00
27439;DHT22;14887;51.252;7.470;2023-04-26T09:54:47;8.10;1.00
27439;DHT22;14887;51.252;7.470;2023-04-26T09:57:15;7.70;1.00
27439;DHT22;14887;51.252;7.470;2023-04-26T09:59:51;7.60;74.30
27439;DHT22;14887;51.252;7.470;2023-04-26T10:02:22;7.60;1.00
27439;DHT22;14887;51.252;7.470;2023-04-26T10:04:50;7.60;1.00
27439;DHT22;14887;51.252;7.470;2023-04-26T10:07:19;7.80;1.00
27439;DHT22;14887;51.252;7.470;2023-04-26T10:09:45;7.90;1.00
27439;DHT22;14887;51.252;7.470;2023-04-26T10:12:15;8.00;1.00
27439;DHT22;14887;51.252;7.470;2023-04-26T10:14:42;8.60;1.00
27439;DHT22;14887;51.252;7.470;2023-04-26T10:17:09;9.40;1.00
27439;DHT22;14887;51.252;7.470;2023-04-26T10:19:37;9.80;1.00
27439;DHT22;14887;51.252;7.470;2023-04-26T10:22:09;10.80;1.00
27439;DHT22;14887;51.252;7.470;2023-04-26T10:24:36;12.10;99.90
27439;DHT22;14887;51.252;7.470;2023-04-26T10:27:02;12.90;99.90
27439;DHT22;14887;51.252;7.470;2023-04-26T10:32:21;12.20;99.90
27439;DHT22;14887;51.252;7.470;2023-04-26T10:35:09;11.40;99.90
27439;DHT22;14887;51.252;7.470;2023-04-26T10:38:06;11.00;99.90
27439;DHT22;14887;51.252;7.470;2023-04-26T10:40:33;11.00;99.90
27439;DHT22;14887;51.252;7.470;2023-04-26T10:45:41;11.10;99.90
27439;DHT22;14887;51.252;7.470;2023-04-26T10:48:17;11.10;99.90
27439;DHT22;14887;51.252;7.470;2023-04-26T10:53:28;10.00;99.90
27439;DHT22;14887;51.252;7.470;2023-04-26T10:55:53;9.50;99.90
27439;DHT22;14887;51.252;7.470;2023-04-26T10:58:33;9.00;1.00
27439;DHT22;14887;51.252;7.470;2023-04-26T11:01:14;8.70;99.90
27439;DHT22;14887;51.252;7.470;2023-04-26T11:04:00;8.70;1.00
27439;DHT22;14887;51.252;7.470;2023-04-26T11:06:30;8.70;1.00
27439;DHT22;14887;51.252;7.470;2023-04-26T11:09:36;8.60;1.00
27439;DHT22;14887;51.252;7.470;2023-04-26T11:12:05;9.40;1.00
27439;DHT22;14887;51.252;7.470;2023-04-26T11:14:32;10.30;1.00
27439;DHT22;14887;51.252;7.470;2023-04-26T11:17:01;11.10;1.00
27439;DHT22;14887;51.252;7.470;2023-04-26T11:19:27;11.20;99.90
27439;DHT22;14887;51.252;7.470;2023-04-26T11:21:53;11.20;99.90
27439;DHT22;14887;51.252;7.470;2023-04-26T11:24:24;11.30;99.90
27439;DHT22;14887;51.252;7.470;2023-04-26T11:26:50;11.00;99.90
27439;DHT22;14887;51.252;7.470;2023-04-26T11:29:20;10.60;99.90
27439;DHT22;14887;51.252;7.470;2023-04-26T11:31:52;9.90;99.90
27439;DHT22;14887;51.252;7.470;2023-04-26T11:34:30;9.40;99.90
27439;DHT22;14887;51.252;7.470;2023-04-26T11:36:56;9.60;99.90
27439;DHT22;14887;51.252;7.470;2023-04-26T11:39:22;9.50;99.90
27439;DHT22;14887;51.252;7.470;2023-04-26T11:41:48;9.60;99.90
27439;DHT22;14887;51.252;7.470;2023-04-26T11:44:19;10.00;99.90
27439;DHT22;14887;51.252;7.470;2023-04-26T11:46:47;10.10;99.90
27439;DHT22;14887;51.252;7.470;2023-04-26T11:49:14;10.20;99.90
27439;DHT22;14887;51.252;7.470;2023-04-26T11:51:40;10.20;99.90
27439;DHT22;14887;51.252;7.470;2023-04-26T11:54:06;10.10;99.90
27439;DHT22;14887;51.252;7.470;2023-04-26T11:56:32;9.90;99.90
27439;DHT22;14887;51.252;7.470;2023-04-26T11:58:57;9.90;99.90
27439;DHT22;14887;51.252;7.470;2023-04-26T12:01:28;9.70;99.90
27439;DHT22;14887;51.252;7.470;2023-04-26T12:03:58;9.60;99.90
27439;DHT22;14887;51.252;7.470;2023-04-26T12:06:43;9.60;99.90
27439;DHT22;14887;51.252;7.470;2023-04-26T12:09:09;9.90;99.90
27439;DHT22;14887;51.252;7.470;2023-04-26T12:11:38;10.20;99.90
27439;DHT22;14887;51.252;7.470;2023-04-26T12:14:04;10.40;99.90
27439;DHT22;14887;51.252;7.470;2023-04-26T12:16:30;10.80;99.90
27439;DHT22;14887;51.252;7.470;2023-04-26T12:18:56;11.10;99.90
27439;DHT22;14887;51.252;7.470;2023-04-26T12:21:22;11.50;99.90
27439;DHT22;14887;51.252;7.470;2023-04-26T12:23:49;11.50;99.90
27439;DHT22;14887;51.252;7.470;2023-04-26T12:26:14;11.50;99.90
27439;DHT22;14887;51.252;7.470;2023-04-26T12:28:40;11.50;99.90
27439;DHT22;14887;51.252;7.470;2023-04-26T12:31:06;11.50;99.90
27439;DHT22;14887;51.252;7.470;2023-04-26T12:33:32;11.20;99.90
27439;DHT22;14887;51.252;7.470;2023-04-26T12:36:08;10.90;99.90
27439;DHT22;14887;51.252;7.470;2023-04-26T12:38:34;10.90;99.90
27439;DHT22;14887;51.252;7.470;2023-04-26T12:41:00;11.00;99.90
27439;DHT22;14887;51.252;7.470;2023-04-26T12:43:26;11.30;99.90
27439;DHT22;14887;51.252;7.470;2023-04-26T12:45:51;11.70;99.90
27439;DHT22;14887;51.252;7.470;2023-04-26T12:48:17;12.00;99.90
27439;DHT22;14887;51.252;7.470;2023-04-26T12:50:42;12.70;99.90
27439;DHT22;14887;51.252;7.470;2023-04-26T12:53:08;13.30;99.90
27439;DHT22;14887;51.252;7.470;2023-04-26T12:55:35;13.50;99.90
27439;DHT22;14887;51.252;7.470;2023-04-26T12:58:01;13.40;99.90
27439;DHT22;14887;51.252;7.470;2023-04-26T13:00:27;13.30;99.90
27439;DHT22;14887;51.252;7.470;2023-04-26T13:02:52;13.40;99.90
27439;DHT22;14887;51.252;7.470;2023-04-26T13:05:18;13.80;99.90
27439;DHT22;14887;51.252;7.470;2023-04-26T13:07:43;13.40;99.90
27439;DHT22;14887;51.252;7.470;2023-04-26T13:10:09;13.20;99.90
27439;DHT22;14887;51.252;7.470;2023-04-26T13:12:36;12.70;99.90
27439;DHT22;14887;51.252;7.470;2023-04-26T13:15:04;12.00;99.90
27439;DHT22;14887;51.252;7.470;2023-04-26T13:17:31;11.70;99.90
27439;DHT22;14887;51.252;7.470;2023-04-26T13:19:57;11.30;99.90
27439;DHT22;14887;51.252;7.470;2023-04-26T13:22:22;11.10;99.90
27439;DHT22;14887;51.252;7.470;2023-04-26T13:24:48;10.80;99.90
27439;DHT22;14887;51.252;7.470;2023-04-26T13:27:13;10.70;99.90
27439;DHT22;14887;51.252;7.470;2023-04-26T13:29:40;10.50;99.90
27439;DHT22;14887;51.252;7.470;2023-04-26T13:32:06;10.90;99.90
27439;DHT22;14887;51.252;7.470;2023-04-26T13:34:32;11.00;99.90
27439;DHT22;14887;51.252;7.470;2023-04-26T13:36:58;11.30;99.90
27439;DHT22;14887;51.252;7.470;2023-04-26T13:39:26;11.50;99.90
27439;DHT22;14887;51.252;7.470;2023-04-26T13:41:54;11.30;99.90
27439;DHT22;14887;51.252;7.470;2023-04-26T13:44:20;11.50;99.90
27439;DHT22;14887;51.252;7.470;2023-04-26T13:46:46;11.20;99.90
27439;DHT22;14887;51.252;7.470;2023-04-26T13:49:12;11.50;99.90
27439;DHT22;14887;51.252;7.470;2023-04-26T13:51:39;11.70;99.90
27439;DHT22;14887;51.252;7.470;2023-04-26T13:54:05;12.20;99.90
27439;DHT22;14887;51.252;7.470;2023-04-26T13:56:31;14.10;99.90
27439;DHT22;14887;51.252;7.470;2023-04-26T13:58:58;16.30;99.90
27439;DHT22;14887;51.252;7.470;2023-04-26T14:01:28;18.20;99.90
27439;DHT22;14887;51.252;7.470;2023-04-26T14:03:53;19.90;99.90
27439;DHT22;14887;51.252;7.470;2023-04-26T14:06:19;21.40;99.90
27439;DHT22;14887;51.252;7.470;2023-04-26T14:08:44;20.50;99.90
27439;DHT22;14887;51.252;7.470;2023-04-26T14:11:10;18.60;99.90
27439;DHT22;14887;51.252;7.470;2023-04-26T14:13:37;16.80;99.90
27439;DHT22;14887;51.252;7.470;2023-04-26T14:16:03;15.00;99.90
27439;DHT22;14887;51.252;7.470;2023-04-26T14:18:28;14.10;99.90
27439;DHT22;14887;51.252;7.470;2023-04-26T14:20:54;13.50;99.90
27439;DHT22;14887;51.252;7.470;2023-04-26T14:23:20;13.30;99.90
27439;DHT22;14887;51.252;7.470;2023-04-26T14:25:45;14.50;99.90
27439;DHT22;14887;51.252;7.470;2023-04-26T14:28:11;16.40;99.90
27439;DHT22;14887;51.252;7.470;2023-04-26T14:30:37;17.80;99.90
27439;DHT22;14887;51.252;7.470;2023-04-26T14:33:02;18.40;99.90
27439;DHT22;14887;51.252;7.470;2023-04-26T14:35:28;17.80;99.90
27439;DHT22;14887;51.252;7.470;2023-04-26T14:37:53;16.30;99.90
27439;DHT22;14887;51.252;7.470;2023-04-26T14:40:19;15.10;99.90
27439;DHT22;14887;51.252;7.470;2023-04-26T14:42:45;14.30;99.90
27439;DHT22;14887;51.252;7.470;2023-04-26T14:45:11;14.60;99.90
27439;DHT22;14887;51.252;7.470;2023-04-26T14:47:37;15.10;99.90
27439;DHT22;14887;51.252;7.470;2023-04-26T14:50:03;16.40;99.90
27439;DHT22;14887;51.252;7.470;2023-04-26T14:52:29;18.30;99.90
27439;DHT22;14887;51.252;7.470;2023-04-26T14:54:56;19.40;99.90
27439;DHT22;14887;51.252;7.470;2023-04-26T14:57:22;19.20;99.90
27439;DHT22;14887;51.252;7.470;2023-04-26T14:59:47;17.80;99.90
27439;DHT22;14887;51.252;7.470;2023-04-26T15:02:13;16.20;99.90
27439;DHT22;14887;51.252;7.470;2023-04-26T15:04:38;14.90;99.90
27439;DHT22;14887;51.252;7.470;2023-04-26T15:07:04;14.20;99.90
27439;DHT22;14887;51.252;7.470;2023-04-26T15:09:30;13.40;99.90
27439;DHT22;14887;51.252;7.470;2023-04-26T15:11:55;13.70;99.90
27439;DHT22;14887;51.252;7.470;2023-04-26T15:14:21;15.30;99.90
27439;DHT22;14887;51.252;7.470;2023-04-26T15:16:46;17.10;99.90
27439;DHT22;14887;51.252;7.470;2023-04-26T15:19:12;18.00;99.90
27439;DHT22;14887;51.252;7.470;2023-04-26T15:21:37;17.50;99.90
27439;DHT22;14887;51.252;7.470;2023-04-26T15:24:03;16.50;99.90
27439;DHT22;14887;51.252;7.470;2023-04-26T15:26:29;15.80;99.90
27439;DHT22;14887;51.252;7.470;2023-04-26T15:28:55;15.20;99.90
27439;DHT22;14887;51.252;7.470;2023-04-26T15:31:21;14.70;99.90
27439;DHT22;14887;51.252;7.470;2023-04-26T15:33:46;14.20;99.90
27439;DHT22;14887;51.252;7.470;2023-04-26T15:36:12;13.50;99.90
27439;DHT22;14887;51.252;7.470;2023-04-26T15:38:38;12.90;99.90
27439;DHT22;14887;51.252;7.470;2023-04-26T15:41:06;12.60;99.90
27439;DHT22;14887;51.252;7.470;2023-04-26T15:43:32;12.40;99.90
27439;DHT22;14887;51.252;7.470;2023-04-26T15:45:57;12.40;99.90
27439;DHT22;14887;51.252;7.470;2023-04-26T15:48:23;12.30;99.90